Time;durP1;ratioP1;P1;durP2;ratioP2;P2;SDS_P1;SDS_P2;PMS_P1;PMS_P2;Temp;Humidity;BMP_temperature;BMP_pressure;BME280_temperature;BME280_humidity;BME280_pressure;Samples;Min_cycle;Max_cycle;Signal;HPM_P1;HPM_P2
2022/04/28 00:00:04;;;;;;;;;42.67;36.00;;;;;13.73;51.57;101944.41;5015164;28;45406;-68
2022/04/28 00:02:30;;;;;;;;;34.67;31.67;;;;;13.75;51.74;101953.13;4998433;28;46870;-67
2022/04/28 00:04:55;;;;;;;;;40.33;34.33;;;;;13.75;51.25;101957.63;4994563;28;45230;-68
2022/04/28 00:07:22;;;;;;;;;45.00;35.00;;;;;13.50;51.35;101926.88;4978787;28;45290;-69
2022/04/28 00:09:47;;;;;;;;;36.67;32.67;;;;;13.73;51.31;101959.59;4995534;28;45495;-68
2022/04/28 00:12:13;;;;;;;;;42.75;34.50;;;;;13.60;51.46;101941.94;4996061;28;45977;-69
2022/04/28 00:14:38;;;;;;;;;40.00;34.00;;;;;13.48;51.66;101929.69;4996036;28;45536;-69
2022/04/28 00:17:04;;;;;;;;;35.00;31.50;;;;;13.41;51.38;101931.16;4996131;28;45389;-67
2022/04/28 00:19:30;;;;;;;;;38.33;32.67;;;;;13.57;51.72;101966.25;5013386;28;45514;-68
2022/04/28 00:21:55;;;;;;;;;37.33;34.00;;;;;13.54;51.54;101949.66;5014999;28;45749;-69
2022/04/28 00:24:21;;;;;;;;;36.00;32.67;;;;;13.54;50.96;101949.66;4997758;28;45842;-69
2022/04/28 00:26:47;;;;;;;;;39.00;32.00;;;;;13.56;51.18;101959.22;5016050;28;45519;-70
2022/04/28 00:29:12;;;;;;;;;38.00;33.00;;;;;13.59;51.50;101955.44;5015962;28;45347;-69
2022/04/28 00:31:38;;;;;;;;;39.67;34.67;;;;;13.38;51.76;101950.97;5014842;28;45563;-71
2022/04/28 00:34:27;;;;;;;;;41.33;36.33;;;;;13.23;51.66;101925.63;5015881;28;45412;-68
2022/04/28 00:36:52;;;;;;;;;45.33;36.00;;;;;13.09;51.88;101913.41;5014415;28;45564;-69
2022/04/28 00:39:17;;;;;;;;;40.00;34.33;;;;;13.36;51.70;101957.44;5010786;28;45207;-68
2022/04/28 00:41:43;;;;;;;;;41.67;33.00;;;;;13.25;52.15;101958.38;4989265;28;47361;-69
2022/04/28 00:44:11;;;;;;;;;42.25;35.00;;;;;13.21;51.94;101948.06;4998215;28;45350;-68
2022/04/28 00:46:44;;;;;;;;;39.33;33.67;;;;;12.84;52.45;101892.47;5000132;28;45351;-68
2022/04/28 00:51:55;;;;;;;;;43.50;35.50;;;;;13.08;52.01;101956.28;4999093;28;45443;-69
2022/04/28 00:54:23;;;;;;;;;38.67;34.33;;;;;12.89;52.78;101938.31;4998999;28;45452;-69
2022/04/28 00:56:49;;;;;;;;;41.33;32.33;;;;;12.88;52.61;101939.28;4999254;28;45313;-69
2022/04/28 00:59:17;;;;;;;;;43.00;35.33;;;;;12.81;52.83;101919.41;4999420;28;45263;-68
2022/04/28 01:01:42;;;;;;;;;42.33;33.33;;;;;12.80;52.80;101921.22;4988818;28;47051;-68
2022/04/28 01:04:08;;;;;;;;;40.00;35.00;;;;;12.92;52.61;101951.38;5018574;28;45457;-69
2022/04/28 01:06:34;;;;;;;;;44.75;36.00;;;;;12.82;52.70;101953.16;5029239;28;45517;-69
2022/04/28 01:09:00;;;;;;;;;42.33;35.00;;;;;12.79;53.03;101956.88;5018886;28;45349;-68
2022/04/28 01:11:26;;;;;;;;;34.33;31.00;;;;;12.03;53.29;101821.97;5018258;28;48093;-69
2022/04/28 01:13:52;;;;;;;;;41.00;34.00;;;;;12.79;52.97;101951.56;5019969;28;45378;-68
2022/04/28 01:16:18;;;;;;;;;43.67;37.00;;;;;12.47;52.82;101906.25;5001352;28;45295;-69
2022/04/28 01:18:44;;;;;;;;;45.00;38.75;;;;;12.68;53.24;101946.28;5018805;28;45297;-68
2022/04/28 01:21:10;;;;;;;;;32.33;31.00;;;;;12.20;53.10;101881.84;5017567;28;46708;-68
2022/04/28 01:23:36;;;;;;;;;41.50;33.50;;;;;12.68;53.23;101950.78;5018023;28;45495;-68
2022/04/28 01:26:03;;;;;;;;;45.00;38.00;;;;;12.60;53.58;101945.22;5016963;28;45475;-69
2022/04/28 01:28:31;;;;;;;;;47.25;38.75;;;;;12.48;53.77;101950.63;5018323;28;45495;-68
2022/04/28 01:30:59;;;;;;;;;46.50;38.50;;;;;12.36;53.82;101938.28;5018081;28;45721;-68
2022/04/28 01:33:24;;;;;;;;;42.00;34.67;;;;;12.33;54.03;101925.19;4981690;28;45528;-69
2022/04/28 01:35:50;;;;;;;;;41.33;32.67;;;;;12.46;53.79;101941.91;5006765;28;45472;-69
2022/04/28 01:38:16;;;;;;;;;41.00;35.33;;;;;12.41;53.95;101951.22;5017983;28;45351;-68
2022/04/28 01:40:44;;;;;;;;;42.33;35.67;;;;;12.33;53.82;101933.19;5018197;28;46728;-67
2022/04/28 01:43:09;;;;;;;;;44.50;37.50;;;;;12.06;53.92;101898.16;5018338;28;45515;-68
2022/04/28 01:45:35;;;;;;;;;39.33;33.33;;;;;12.32;54.10;101931.50;5016235;28;45407;-69
2022/04/28 01:48:00;;;;;;;;;38.00;33.33;;;;;12.37;54.05;101953.31;5016148;28;45284;-68
2022/04/28 01:50:26;;;;;;;;;48.25;38.50;;;;;12.36;54.41;101951.63;5017259;28;45620;-68
2022/04/28 01:55:35;;;;;;;;;36.33;31.33;;;;;12.26;54.67;101932.03;5018103;28;45538;-69
2022/04/28 01:58:01;;;;;;;;;39.67;35.33;;;;;12.25;54.63;101948.16;5018640;28;45423;-69
2022/04/28 02:00:26;;;;;;;;;41.33;35.33;;;;;12.24;54.62;101933.97;5032735;28;48192;-68
2022/04/28 02:02:52;;;;;;;;;41.00;35.33;;;;;12.32;54.53;101950.19;5018184;28;45305;-68
2022/04/28 02:05:18;;;;;;;;;44.67;36.00;;;;;12.19;54.50;101944.16;5017951;28;45427;-68
2022/04/28 02:07:44;;;;;;;;;43.67;35.67;;;;;12.06;54.84;101944.31;5016631;28;45562;-69
2022/04/28 02:10:10;;;;;;;;;37.00;31.00;;;;;12.15;54.86;101954.22;4999054;28;47432;-68
2022/04/28 02:12:37;;;;;;;;;41.33;36.00;;;;;11.93;55.33;101956.06;5017760;28;45312;-69
2022/04/28 02:15:03;;;;;;;;;48.33;39.00;;;;;11.91;55.56;101956.19;5017574;28;45266;-69
2022/04/28 02:17:35;;;;;;;;;40.00;33.33;;;;;11.90;55.36;101943.00;5017695;28;45361;-69
2022/04/28 02:20:09;;;;;;;;;39.00;31.33;;;;;12.04;55.12;101950.75;4998823;28;47218;-69
2022/04/28 02:22:36;;;;;;;;;36.67;32.67;;;;;11.98;55.34;101968.06;5017073;28;45531;-68
2022/04/28 02:25:05;;;;;;;;;40.33;32.67;;;;;11.98;55.40;101959.22;5017441;28;45307;-67
2022/04/28 02:27:31;;;;;;;;;42.00;33.67;;;;;11.99;55.68;101958.25;5017457;28;45295;-70
2022/04/28 02:29:59;;;;;;;;;42.00;36.33;;;;;11.86;55.76;101932.59;5032681;28;47222;-69
2022/04/28 02:32:24;;;;;;;;;44.25;36.00;;;;;12.02;56.04;101963.34;5000075;28;45512;-68
2022/04/28 02:34:50;;;;;;;;;44.00;34.00;;;;;11.65;55.67;101912.97;4996628;28;45247;-69
2022/04/28 02:37:15;;;;;;;;;43.00;36.00;;;;;11.79;55.60;101936.69;4980019;28;45399;-69
2022/04/28 02:39:41;;;;;;;;;40.00;35.33;;;;;11.88;55.66;101962.63;5009641;28;46208;-69
2022/04/28 02:42:07;;;;;;;;;43.75;35.75;;;;;11.81;56.05;101972.09;5032697;28;45853;-69
2022/04/28 02:44:33;;;;;;;;;44.33;36.33;;;;;11.84;56.37;101981.66;5017011;28;45194;-67
2022/04/28 02:46:58;;;;;;;;;42.25;36.25;;;;;11.68;56.27;101959.81;5017403;28;45291;-69
2022/04/28 02:49:24;;;;;;;;;32.33;29.67;;;;;11.75;55.86;101975.19;5009190;28;46518;-69
2022/04/28 02:51:49;;;;;;;;;40.33;34.67;;;;;11.61;56.51;101962.09;4995768;28;45995;-68
2022/04/28 02:54:15;;;;;;;;;41.33;35.00;;;;;11.16;56.71;101879.56;4997316;28;45248;-69
2022/04/28 02:56:41;;;;;;;;;39.00;33.33;;;;;11.78;56.27;101982.09;4997400;28;45748;-67
2022/04/28 02:59:07;;;;;;;;;40.00;33.67;;;;;11.61;56.65;101958.59;5000252;28;48406;-68
2022/04/28 03:01:32;;;;;;;;;36.67;33.00;;;;;11.61;56.06;101967.44;4998657;28;45413;-70
2022/04/28 03:03:58;;;;;;;;;43.33;34.00;;;;;11.68;56.43;101979.31;4998987;28;45362;-69
2022/04/28 03:11:56;;;;;;;;;40.50;35.25;;;;;11.66;56.85;101978.59;5012693;28;45428;-68
2022/04/28 03:14:21;;;;;;;;;36.67;33.33;;;;;11.48;57.00;101964.06;4998971;28;45259;-69
2022/04/28 03:16:47;;;;;;;;;40.00;33.67;;;;;11.59;56.89;101982.69;5032160;28;45594;-70
2022/04/28 03:19:13;;;;;;;;;37.67;32.33;;;;;11.63;56.41;101964.69;5010934;28;45591;-68
2022/04/28 03:21:47;;;;;;;;;39.75;35.25;;;;;11.68;56.59;101976.66;4996491;28;45408;-68
2022/04/28 03:24:13;;;;;;;;;34.33;31.33;;;;;11.63;56.61;101989.50;4978784;28;45480;-68
2022/04/28 03:26:39;;;;;;;;;36.67;33.33;;;;;11.68;56.66;101987.31;4996623;28;45565;-69
2022/04/28 03:29:04;;;;;;;;;43.25;34.00;;;;;11.67;56.64;101988.28;4999129;28;47128;-69
2022/04/28 03:31:30;;;;;;;;;44.00;34.33;;;;;11.43;56.44;101960.91;5016284;28;45349;-68
2022/04/28 03:33:55;;;;;;;;;39.00;35.33;;;;;11.66;56.60;101983.91;5016746;28;45584;-67
2022/04/28 03:39:05;;;;;;;;;45.00;36.67;;;;;11.39;56.63;101954.94;5015717;28;45447;-68
2022/04/28 03:41:31;;;;;;;;;40.75;34.75;;;;;11.56;56.82;101989.09;4998127;28;45508;-68
2022/04/28 03:43:56;;;;;;;;;39.33;33.00;;;;;11.56;56.80;101978.47;5016308;28;45350;-68
2022/04/28 03:46:23;;;;;;;;;43.33;37.33;;;;;11.59;56.36;101985.34;5016398;28;45243;-67
2022/04/28 03:48:49;;;;;;;;;38.75;35.50;;;;;11.55;56.83;101975.91;5015902;28;45734;-69
2022/04/28 03:51:15;;;;;;;;;40.75;33.75;;;;;11.59;56.43;101986.19;5015983;28;45386;-68
2022/04/28 03:53:42;;;;;;;;;36.67;31.33;;;;;11.44;56.48;101957.28;5031491;28;45485;-67
2022/04/28 03:56:08;;;;;;;;;38.33;30.33;;;;;11.54;56.55;101985.72;5016634;28;45382;-69
2022/04/28 03:58:33;;;;;;;;;39.00;34.00;;;;;11.51;56.57;101974.47;5015829;28;45751;-68
2022/04/28 04:01:00;;;;;;;;;34.67;29.67;;;;;11.60;56.55;101992.38;4997284;28;45614;-68
2022/04/28 04:03:25;;;;;;;;;41.33;33.67;;;;;11.54;56.91;101998.19;5016113;28;45573;-69
2022/04/28 04:05:51;;;;;;;;;42.67;34.33;;;;;11.61;56.52;101995.88;5031066;28;45436;-68
2022/04/28 04:08:17;;;;;;;;;43.25;36.50;;;;;11.51;56.48;101974.47;5013985;28;46283;-69
2022/04/28 04:10:42;;;;;;;;;38.33;33.33;;;;;11.07;56.86;101927.34;5010358;28;45381;-68
2022/04/28 04:13:08;;;;;;;;;42.67;35.00;;;;;11.45;57.64;101990.94;4998042;28;45489;-68
2022/04/28 04:15:34;;;;;;;;;44.33;34.33;;;;;11.01;57.45;101923.31;5015997;28;45332;-70
2022/04/28 04:18:00;;;;;;;;;45.00;37.00;;;;;11.49;57.35;102003.88;5000572;28;48510;-69
2022/04/28 04:20:27;;;;;;;;;43.33;36.00;;;;;11.37;57.10;101972.03;4999233;28;45569;-68
2022/04/28 04:22:53;;;;;;;;;36.33;33.67;;;;;11.50;57.04;102004.72;5019193;28;45574;-68
2022/04/28 04:25:20;;;;;;;;;38.33;34.00;;;;;11.42;57.42;101984.03;5019651;28;45226;-69
2022/04/28 04:27:46;;;;;;;;;34.33;31.33;;;;;11.40;57.19;101977.09;5017528;28;45803;-70
2022/04/28 04:32:56;;;;;;;;;44.67;35.67;;;;;11.66;56.91;102009.72;4999354;28;45273;-70
2022/04/28 04:35:23;;;;;;;;;37.33;33.67;;;;;11.55;56.37;101999.88;4999405;28;45388;-68
2022/04/28 04:37:52;;;;;;;;;43.25;36.25;;;;;10.99;56.63;101901.31;4999536;28;46575;-70
2022/04/28 04:40:18;;;;;;;;;44.75;35.50;;;;;11.62;56.92;102013.59;5008526;28;45447;-69
2022/04/28 04:42:43;;;;;;;;;41.50;34.00;;;;;11.57;56.96;102012.13;5003592;28;45358;-69
2022/04/28 04:45:10;;;;;;;;;41.50;35.25;;;;;11.57;56.70;102022.75;5019110;28;45238;-68
2022/04/28 04:47:36;;;;;;;;;40.25;35.50;;;;;11.54;57.47;102032.81;5017105;28;47822;-69
2022/04/28 04:50:04;;;;;;;;;44.25;35.50;;;;;11.54;56.87;102011.50;5012261;28;45418;-68
2022/04/28 04:52:29;;;;;;;;;46.25;37.00;;;;;11.62;56.79;102008.25;5000686;28;45497;-69
2022/04/28 04:54:55;;;;;;;;;37.50;33.00;;;;;11.05;56.93;101914.16;4999731;28;45291;-69
2022/04/28 04:57:20;;;;;;;;;30.33;27.00;;;;;11.77;56.51;102023.88;5000930;28;46610;-69
2022/04/28 04:59:46;;;;;;;;;48.50;36.25;;;;;11.35;56.25;101957.97;5004566;28;45405;-68
2022/04/28 05:02:11;;;;;;;;;43.25;35.25;;;;;11.71;56.08;102019.03;5008515;28;45516;-69
2022/04/28 05:04:36;;;;;;;;;44.25;37.75;;;;;11.59;56.49;101994.19;4999347;28;45287;-68
2022/04/28 05:07:02;;;;;;;;;45.25;38.00;;;;;11.14;55.82;101910.78;4997292;28;48180;-70
2022/04/28 05:09:27;;;;;;;;;45.00;36.00;;;;;11.93;56.43;102030.69;5012635;28;45252;-68
2022/04/28 05:11:53;;;;;;;;;44.25;37.50;;;;;11.74;56.01;102016.13;5014344;28;45227;-69
2022/04/28 05:14:18;;;;;;;;;44.25;36.00;;;;;11.94;56.24;102040.38;4999015;28;45541;-68
2022/04/28 05:16:43;;;;;;;;;46.75;38.00;;;;;11.98;56.08;102036.50;4980686;28;47114;-68
2022/04/28 05:19:09;;;;;;;;;43.50;37.25;;;;;11.98;56.17;102045.34;4998522;28;45381;-68
2022/04/28 05:21:34;;;;;;;;;42.00;36.00;;;;;11.84;56.18;102030.47;5005494;28;45250;-68
2022/04/28 05:23:59;;;;;;;;;46.50;36.75;;;;;11.85;56.00;102015.31;4998648;28;45462;-68
2022/04/28 05:26:25;;;;;;;;;42.75;36.25;;;;;11.98;55.85;102034.69;4986831;28;45434;-69
2022/04/28 05:28:50;;;;;;;;;46.00;39.00;;;;;12.06;55.99;102055.41;4977386;28;45321;-68
2022/04/28 05:31:16;;;;;;;;;45.00;36.75;;;;;11.27;55.68;101921.31;5002089;28;45297;-69
2022/04/28 05:33:42;;;;;;;;;45.25;37.75;;;;;12.16;55.72;102056.38;4998582;28;45320;-69
2022/04/28 05:36:09;;;;;;;;;47.75;37.00;;;;;11.98;55.20;102031.16;4989101;28;46414;-68
2022/04/28 05:38:37;;;;;;;;;46.25;37.00;;;;;12.29;54.88;102066.91;4978580;28;45152;-67
2022/04/28 05:41:04;;;;;;;;;43.25;36.00;;;;;12.12;54.97;102038.94;4985556;28;45475;-67
2022/04/28 05:46:15;;;;;;;;;49.00;38.50;;;;;12.45;55.07;102073.56;4997216;28;46611;-71
2022/04/28 05:48:40;;;;;;;;;50.25;38.50;;;;;12.23;55.08;102057.59;4996514;28;45365;-69
2022/04/28 05:51:06;;;;;;;;;49.25;40.50;;;;;12.06;55.28;102031.44;5013408;28;45226;-69
2022/04/28 05:53:31;;;;;;;;;44.00;36.67;;;;;10.61;55.50;101806.72;4997507;28;45445;-69
2022/04/28 05:55:57;;;;;;;;;48.75;40.00;;;;;12.31;55.08;102073.81;5013155;28;48434;-69
2022/04/28 05:58:22;;;;;;;;;41.25;35.75;;;;;12.39;54.98;102076.72;4986382;28;45945;-69
2022/04/28 06:00:48;;;;;;;;;49.25;39.00;;;;;12.51;55.19;102082.03;4991356;28;45394;-68
2022/04/28 06:03:13;;;;;;;;;43.25;36.50;;;;;12.38;55.04;102077.69;4993937;28;45588;-68
2022/04/28 06:05:38;;;;;;;;;45.75;38.00;;;;;12.58;54.42;102093.91;4996201;28;45679;-69
2022/04/28 06:08:04;;;;;;;;;45.00;35.25;;;;;12.55;54.24;102078.16;4996423;28;45321;-69
2022/04/28 06:10:29;;;;;;;;;42.75;37.75;;;;;12.22;54.41;102044.38;4992631;28;45286;-70
2022/04/28 06:12:55;;;;;;;;;47.00;40.00;;;;;12.03;54.45;101994.38;4997385;28;45241;-68
2022/04/28 06:15:20;;;;;;;;;51.00;40.00;;;;;12.39;54.34;102073.19;4997683;28;46026;-70
2022/04/28 06:17:46;;;;;;;;;52.00;41.50;;;;;12.53;54.67;102080.09;4996529;28;46202;-67
2022/04/28 06:20:11;;;;;;;;;47.00;39.25;;;;;10.66;54.24;101751.34;4997983;28;45313;-68
2022/04/28 06:22:37;;;;;;;;;48.25;38.75;;;;;12.92;54.08;102097.34;5014180;28;45228;-67
2022/04/28 06:25:03;;;;;;;;;47.00;39.00;;;;;12.89;54.00;102081.59;5017352;28;45634;-70
2022/04/28 06:27:30;;;;;;;;;49.00;40.75;;;;;13.28;53.37;102093.47;5018351;28;46511;-68
2022/04/28 06:29:55;;;;;;;;;52.25;41.25;;;;;13.66;52.01;102077.72;5016170;28;45507;-69
2022/04/28 06:32:21;;;;;;;;;45.50;38.00;;;;;14.43;50.71;102103.13;5017417;28;45340;-71
2022/04/28 06:34:47;;;;;;;;;49.25;40.00;;;;;13.92;48.96;101907.03;5017991;28;45719;-69
2022/04/28 06:37:16;;;;;;;;;60.25;46.50;;;;;15.61;47.68;102107.50;5016015;28;46191;-68
2022/04/28 06:39:42;;;;;;;;;54.00;46.00;;;;;16.28;45.48;102109.16;5002674;28;45342;-69
2022/04/28 06:42:08;;;;;;;;;44.67;38.67;;;;;16.52;44.11;102076.41;4998177;28;45241;-68
2022/04/28 06:44:35;;;;;;;;;46.33;40.00;;;;;17.12;43.37;102106.25;4997600;28;45568;-70
2022/04/28 06:47:01;;;;;;;;;47.00;38.33;;;;;17.32;42.66;102075.53;4982810;28;45390;-74
2022/04/28 06:49:30;;;;;;;;;46.67;38.33;;;;;17.87;41.50;102112.09;5017600;28;45349;-80
2022/04/28 06:51:55;;;;;;;;;46.50;39.00;;;;;18.14;41.08;102113.78;5009662;28;45271;-68
2022/04/28 06:54:20;;;;;;;;;48.50;40.75;;;;;18.13;40.48;102101.31;5006862;28;45499;-69
2022/04/28 06:56:51;;;;;;;;;49.00;40.33;;;;;17.68;40.74;102023.56;5012082;28;45514;-69
2022/04/28 06:59:16;;;;;;;;;47.50;38.50;;;;;18.60;39.65;102114.31;5010640;28;45250;-68
2022/04/28 07:01:43;;;;;;;;;44.33;37.67;;;;;18.90;39.33;102113.75;5006756;28;45708;-73
2022/04/28 07:04:11;;;;;;;;;51.00;40.67;;;;;19.15;38.69;102110.09;5005039;28;46262;-68
2022/04/28 07:06:36;;;;;;;;;44.00;36.33;;;;;19.41;37.85;102119.88;4984005;28;45526;-69
2022/04/28 07:09:02;;;;;;;;;42.00;36.67;;;;;19.64;37.15;102118.22;4997641;28;45521;-68
2022/04/28 07:11:27;;;;;;;;;47.67;39.67;;;;;19.64;36.95;102118.22;4995482;28;45255;-71
2022/04/28 07:13:53;;;;;;;;;38.00;35.00;;;;;19.88;37.05;102116.50;5016409;28;46266;-68
2022/04/28 07:16:18;;;;;;;;;45.67;38.67;;;;;20.05;36.73;102128.97;5016460;28;45428;-70
2022/04/28 07:18:44;;;;;;;;;51.67;40.67;;;;;20.22;36.37;102129.72;4989290;28;45331;-69
2022/04/28 07:21:10;;;;;;;;;40.00;36.33;;;;;20.57;35.83;102129.28;5001986;28;45406;-68
2022/04/28 07:23:35;;;;;;;;;49.67;38.33;;;;;20.92;34.92;102129.78;4998190;28;47765;-69
2022/04/28 07:26:01;;;;;;;;;46.75;38.50;;;;;21.10;34.96;102102.47;5009613;28;45409;-68
2022/04/28 07:28:26;;;;;;;;;40.50;36.00;;;;;21.23;33.81;102086.50;5014751;28;45436;-69
2022/04/28 07:30:52;;;;;;;;;44.00;37.33;;;;;21.29;33.47;102099.31;5015212;28;45433;-68
2022/04/28 07:33:17;;;;;;;;;46.00;39.33;;;;;21.42;34.04;102087.84;5010875;28;45789;-69
2022/04/28 07:35:42;;;;;;;;;39.00;34.67;;;;;21.93;33.86;102099.72;5005980;28;45472;-70
2022/04/28 07:38:08;;;;;;;;;42.33;36.00;;;;;22.30;33.46;102106.09;5002600;28;45510;-68
2022/04/28 07:40:35;;;;;;;;;42.00;36.67;;;;;22.05;32.34;102100.13;5011767;28;45497;-68
2022/04/28 07:43:01;;;;;;;;;38.33;34.67;;;;;22.46;32.30;102127.59;5016258;28;46591;-68
2022/04/28 07:45:26;;;;;;;;;38.00;33.67;;;;;22.54;31.60;102124.75;5010667;28;45215;-67
2022/04/28 07:47:52;;;;;;;;;39.33;35.00;;;;;22.26;31.51;102028.94;5002816;28;45301;-68
2022/04/28 07:50:17;;;;;;;;;28.00;25.67;;;;;22.45;31.55;102132.16;4990230;28;45606;-67
2022/04/28 07:52:44;;;;;;;;;43.00;37.33;;;;;22.15;31.70;102135.91;5008152;28;45573;-67
2022/04/28 07:55:12;;;;;;;;;40.67;34.67;;;;;22.21;32.67;102116.19;4992274;28;45978;-69
2022/04/28 07:57:41;;;;;;;;;43.33;36.33;;;;;22.19;31.98;102128.22;5014202;28;45515;-71
2022/04/28 08:00:08;;;;;;;;;40.33;36.00;;;;;22.02;32.15;102067.94;5025549;28;45363;-69
2022/04/28 08:02:36;;;;;;;;;45.00;37.67;;;;;22.60;31.76;102123.97;5013993;28;46020;-69
2022/04/28 08:05:04;;;;;;;;;37.33;35.00;;;;;22.52;31.08;102132.25;5000545;28;45606;-70
2022/04/28 08:07:30;;;;;;;;;37.33;34.33;;;;;22.64;31.05;102141.56;5014185;28;45394;-70
2022/04/28 08:09:56;;;;;;;;;34.00;32.67;;;;;22.93;31.65;102134.44;5014189;28;45341;-71
2022/04/28 08:12:21;;;;;;;;;45.33;35.67;;;;;22.69;31.03;102139.13;5005864;28;48264;-71
2022/04/28 08:14:47;;;;;;;;;41.00;35.67;;;;;21.79;31.57;101978.72;5014546;28;45547;-70
2022/04/28 08:17:12;;;;;;;;;43.67;38.33;;;;;22.60;31.55;102123.97;5013718;28;45230;-83
2022/04/28 08:19:38;;;;;;;;;52.00;42.25;;;;;22.40;31.78;102122.91;5013211;28;45481;-69
2022/04/28 08:22:03;;;;;;;;;37.67;35.00;;;;;22.46;31.33;102128.41;5013759;28;46502;-69
2022/04/28 08:24:29;;;;;;;;;40.00;36.00;;;;;22.33;31.65;102132.81;5013745;28;45344;-70
2022/04/28 08:26:54;;;;;;;;;46.33;37.33;;;;;22.21;32.18;102134.28;5024829;28;45514;-84
2022/04/28 08:29:21;;;;;;;;;34.67;33.33;;;;;22.08;31.99;102086.22;5014236;28;45475;-69
2022/04/28 08:31:47;;;;;;;;;35.00;32.00;;;;;22.29;31.54;102137.78;5014126;28;47464;-69
2022/04/28 08:34:13;;;;;;;;;42.00;35.67;;;;;21.78;31.88;101995.97;5016179;28;45261;-68
2022/04/28 08:36:40;;;;;;;;;34.67;32.33;;;;;23.29;31.04;102135.22;5014197;28;45432;-69
2022/04/28 08:39:09;;;;;;;;;40.00;35.67;;;;;23.50;30.33;102125.38;5022857;28;45669;-68
2022/04/28 08:41:41;;;;;;;;;37.00;32.67;;;;;23.29;29.85;102140.66;5013418;28;46179;-70
2022/04/28 08:44:13;;;;;;;;;35.00;32.67;;;;;23.66;30.10;102146.88;5014814;28;45490;-69
2022/04/28 08:46:51;;;;;;;;;30.00;28.67;;;;;23.66;29.28;102136.84;5010380;28;45551;-68
2022/04/28 08:49:20;;;;;;;;;38.00;30.67;;;;;23.69;29.20;102122.03;5012745;28;45427;-68
2022/04/28 08:51:46;;;;;;;;;30.00;27.67;;;;;24.02;28.96;102140.44;4988457;28;47972;-69
2022/04/28 08:54:13;;;;;;;;;28.00;28.00;;;;;24.23;28.95;102137.66;5012449;28;45615;-68
2022/04/28 08:56:41;;;;;;;;;36.33;32.67;;;;;24.29;28.65;102133.31;5010225;28;45310;-69
2022/04/28 08:59:08;;;;;;;;;33.33;29.33;;;;;24.31;28.74;102126.66;4993891;28;45456;-68
2022/04/28 09:01:34;;;;;;;;;30.00;28.67;;;;;24.45;28.53;102120.25;4994707;28;45321;-69
2022/04/28 09:04:02;;;;;;;;;30.00;28.33;;;;;24.96;27.67;102133.38;5005630;28;45650;-67
2022/04/28 09:06:34;;;;;;;;;27.00;25.67;;;;;25.29;27.54;102102.69;4999003;28;45484;-72
2022/04/28 09:09:06;;;;;;;;;33.33;30.33;;;;;25.88;26.03;102105.44;5002237;28;45355;-69
2022/04/28 09:11:37;;;;;;;;;27.00;25.67;;;;;25.55;26.58;102116.31;5004716;28;46066;-69
2022/04/28 09:14:11;;;;;;;;;25.67;25.00;;;;;23.43;27.61;101880.22;5007065;28;45527;-70
2022/04/28 09:16:49;;;;;;;;;29.67;28.00;;;;;25.55;26.37;102112.75;4986478;28;45362;-70
2022/04/28 09:19:45;;;;;;;;;28.33;26.67;;;;;25.92;26.30;102111.28;4998067;28;45505;-69
2022/04/28 09:22:13;;;;;;;;;33.33;27.00;;;;;26.04;25.35;102087.78;4993337;28;46621;-70
2022/04/28 09:24:46;;;;;;;;;24.33;22.33;;;;;26.24;25.64;102106.81;4980219;28;45265;-68
2022/04/28 09:27:13;;;;;;;;;23.00;21.33;;;;;26.21;25.48;102110.78;5006138;28;45337;-68
2022/04/28 09:29:43;;;;;;;;;26.67;25.33;;;;;26.79;24.87;102107.19;5003417;28;45501;-76
2022/04/28 09:32:11;;;;;;;;;22.67;22.67;;;;;26.12;24.09;101986.69;5003728;28;45848;-68
2022/04/28 09:34:48;;;;;;;;;31.00;28.67;;;;;26.73;24.75;102078.91;5016440;28;45333;-70
2022/04/28 09:37:22;;;;;;;;;30.00;28.00;;;;;27.06;24.34;102084.19;5018422;28;45333;-69
2022/04/28 09:42:40;;;;;;;;;25.00;25.00;;;;;26.89;24.66;102091.22;4998204;28;45471;-69
2022/04/28 09:45:08;;;;;;;;;28.33;25.33;;;;;26.36;23.83;101939.59;4996326;28;45498;-70
2022/04/28 09:47:34;;;;;;;;;26.67;23.33;;;;;27.36;23.67;102108.94;4993218;28;45286;-70
2022/04/28 09:50:00;;;;;;;;;36.33;32.67;;;;;28.10;23.26;102097.13;5018039;28;45199;-68
2022/04/28 09:52:25;;;;;;;;;27.00;24.67;;;;;28.39;22.55;102105.66;5016183;28;48284;-68
2022/04/28 09:54:52;;;;;;;;;23.33;20.67;;;;;28.20;22.23;102066.50;5033076;28;46064;-69
2022/04/28 09:57:20;;;;;;;;;25.33;25.00;;;;;27.58;22.82;102019.22;5032822;28;45420;-71
2022/04/28 09:59:47;;;;;;;;;23.67;21.33;;;;;27.74;23.27;102077.97;5013867;28;45340;-69
2022/04/28 10:02:18;;;;;;;;;27.00;24.67;;;;;27.44;23.58;102045.88;5015066;28;45310;-70
2022/04/28 10:04:44;;;;;;;;;21.33;20.33;;;;;27.39;23.22;102067.53;5017005;28;45475;-69
2022/04/28 10:07:11;;;;;;;;;17.00;17.00;;;;;26.05;24.18;102013.97;5017308;28;45334;-68
2022/04/28 10:09:38;;;;;;;;;21.00;21.00;;;;;25.18;25.37;102012.44;5002086;28;45388;-69
2022/04/28 10:12:06;;;;;;;;;28.33;24.33;;;;;24.24;26.37;101971.69;5015886;28;46402;-71
2022/04/28 10:14:33;;;;;;;;;19.67;18.33;;;;;24.88;26.64;102071.84;5015429;28;45436;-70
2022/04/28 10:17:01;;;;;;;;;20.33;19.67;;;;;24.96;26.56;102081.69;5012308;28;45393;-68
2022/04/28 10:19:35;;;;;;;;;24.00;21.33;;;;;24.57;26.19;102096.84;5018126;28;45360;-68
2022/04/28 10:22:10;;;;;;;;;23.67;23.33;;;;;23.75;27.70;102085.94;5009780;28;46666;-69
2022/04/28 10:33:15;;;;;;;;;19.67;18.00;;;;;22.85;28.34;102083.03;5016775;28;45854;-70
2022/04/28 10:35:49;;;;;;;;;16.67;15.33;;;;;22.83;28.88;102079.69;5016139;28;45303;-68
2022/04/28 10:38:34;;;;;;;;;17.00;16.67;;;;;22.63;28.77;102087.56;5015529;28;45281;-70
2022/04/28 10:41:03;;;;;;;;;17.67;16.00;;;;;22.46;29.39;102073.38;5014678;28;45546;-70
2022/04/28 10:43:32;;;;;;;;;19.00;18.33;;;;;22.35;29.25;102073.84;4997008;28;46394;-69
2022/04/28 10:46:29;;;;;;;;;18.67;17.67;;;;;22.26;29.86;102066.88;5015082;28;45359;-70
2022/04/28 10:49:00;;;;;;;;;22.00;20.00;;;;;22.11;29.86;102062.31;4990392;28;45483;-69
2022/04/28 10:51:28;;;;;;;;;16.67;16.67;;;;;22.00;29.82;102060.03;4979038;28;45547;-68
2022/04/28 10:54:02;;;;;;;;;14.33;13.00;;;;;21.71;30.33;102062.72;4995775;28;47686;-68
2022/04/28 10:56:39;;;;;;;;;15.00;12.33;;;;;21.71;29.58;102062.72;5016506;28;45423;-73
2022/04/28 10:59:37;;;;;;;;;12.67;12.33;;;;;21.94;28.62;102065.34;5012020;28;45291;-70
2022/04/28 11:02:13;;;;;;;;;10.33;10.33;;;;;21.61;27.98;102046.75;5009004;28;45561;-70
2022/04/28 11:04:40;;;;;;;;;12.67;12.67;;;;;21.64;28.14;102059.09;5004308;28;46617;-71
2022/04/28 11:07:15;;;;;;;;;14.00;10.33;;;;;21.79;27.91;102066.19;5015926;28;45452;-70
2022/04/28 11:09:43;;;;;;;;;17.00;16.00;;;;;21.77;27.71;102051.16;5001146;28;45209;-70
2022/04/28 11:12:12;;;;;;;;;8.33;8.33;;;;;21.87;26.55;102057.16;5002837;28;45624;-67
2022/04/28 11:14:46;;;;;;;;;10.67;10.67;;;;;21.82;27.09;102048.72;4995566;28;48615;-68
2022/04/28 11:17:13;;;;;;;;;12.67;11.67;;;;;21.74;26.94;102040.69;5015247;28;45436;-70
2022/04/28 11:19:40;;;;;;;;;11.67;10.33;;;;;21.74;27.06;102052.38;5015655;28;45487;-69
2022/04/28 11:22:06;;;;;;;;;8.00;8.00;;;;;21.67;27.02;102050.59;4998034;28;45468;-69
2022/04/28 11:24:32;;;;;;;;;16.00;14.33;;;;;21.44;27.43;102005.50;5015828;28;45610;-67
2022/04/28 11:26:59;;;;;;;;;10.33;10.33;;;;;21.64;27.29;102073.47;5014637;28;45464;-67
2022/04/28 11:29:24;;;;;;;;;11.33;9.00;;;;;21.73;27.48;102066.09;5016299;28;45316;-68
2022/04/28 11:31:50;;;;;;;;;9.00;9.00;;;;;21.87;27.17;102054.44;5016602;28;45210;-68
2022/04/28 11:34:17;;;;;;;;;10.00;9.33;;;;;22.01;26.72;102072.53;5016535;28;46128;-68
2022/04/28 11:36:50;;;;;;;;;13.33;12.33;;;;;21.87;26.26;102038.19;5016231;28;45328;-68
2022/04/28 11:39:15;;;;;;;;;7.67;7.33;;;;;22.06;27.07;102066.59;4998546;28;45258;-68